createdAt,value
2017-12-02T00:02:10.181Z,0.90
2017-12-02T00:04:36.324Z,0.90
2017-12-02T00:07:02.462Z,0.80
2017-12-02T00:09:28.623Z,0.80
2017-12-02T00:11:58.341Z,0.80
2017-12-02T00:14:25.204Z,0.90
2017-12-02T00:16:52.057Z,1.00
2017-12-02T00:19:18.191Z,1.00
2017-12-02T00:21:44.327Z,0.90
2017-12-02T00:24:10.613Z,1.10
2017-12-02T00:26:36.714Z,1.30
2017-12-02T00:29:03.625Z,1.20
2017-12-02T00:31:30.221Z,0.90
2017-12-02T00:33:57.091Z,1.20
2017-12-02T00:36:24.308Z,1.20
2017-12-02T00:38:50.481Z,1.20
2017-12-02T00:41:17.368Z,1.30
2017-12-02T00:43:43.500Z,1.30
2017-12-02T00:46:12.682Z,1.30
2017-12-02T00:48:39.527Z,1.40
2017-12-02T00:51:05.624Z,1.40
2017-12-02T00:53:31.739Z,1.40
2017-12-02T00:55:57.932Z,1.30
2017-12-02T00:58:24.197Z,1.40
2017-12-02T01:00:51.053Z,1.40
2017-12-02T01:03:17.940Z,1.50
2017-12-02T01:05:44.152Z,1.40
2017-12-02T01:08:13.109Z,1.60
2017-12-02T01:10:39.276Z,1.30
2017-12-02T01:13:05.369Z,1.60
2017-12-02T01:15:31.477Z,1.60
2017-12-02T01:17:58.373Z,1.60
2017-12-02T01:20:24.558Z,1.60
2017-12-02T01:22:52.764Z,1.70
2017-12-02T01:25:18.884Z,1.70
2017-12-02T01:27:44.988Z,1.80
2017-12-02T01:30:11.116Z,1.80
2017-12-02T01:32:37.280Z,1.80
2017-12-02T01:35:03.401Z,1.90
2017-12-02T01:37:29.507Z,1.90
2017-12-02T01:39:56.415Z,1.90
2017-12-02T01:42:22.572Z,1.90
2017-12-02T01:44:48.728Z,1.90
2017-12-02T01:47:14.832Z,2.00
2017-12-02T01:49:40.966Z,2.00
2017-12-02T01:52:07.068Z,2.00
2017-12-02T01:54:33.934Z,2.00
2017-12-02T01:57:00.049Z,2.00
2017-12-02T01:59:26.159Z,2.10
2017-12-02T02:01:52.259Z,2.10
2017-12-02T02:04:19.085Z,2.10
2017-12-02T02:06:45.226Z,2.10
2017-12-02T02:09:11.380Z,2.20
2017-12-02T02:11:38.225Z,2.20
2017-12-02T02:14:05.070Z,2.20
2017-12-02T02:16:31.328Z,2.20
2017-12-02T02:18:58.208Z,2.20
2017-12-02T02:21:25.084Z,2.20
2017-12-02T02:23:51.180Z,2.20
2017-12-02T02:26:17.288Z,2.20
2017-12-02T02:28:43.409Z,2.20
2017-12-02T02:31:09.554Z,2.30
2017-12-02T02:33:35.749Z,2.30
2017-12-02T02:36:02.606Z,2.20
2017-12-02T02:38:29.440Z,2.20
2017-12-02T02:40:56.309Z,2.10
2017-12-02T02:43:23.289Z,2.00
2017-12-02T02:45:49.390Z,2.00
2017-12-02T02:48:15.492Z,2.00
2017-12-02T02:50:41.653Z,2.00
2017-12-02T02:53:07.748Z,2.10
2017-12-02T02:55:33.849Z,2.10
2017-12-02T02:57:59.973Z,2.10
2017-12-02T03:00:26.104Z,2.10
2017-12-02T03:02:52.197Z,2.00
2017-12-02T03:05:18.292Z,1.90
2017-12-02T03:07:44.568Z,1.90
2017-12-02T03:10:11.429Z,1.90
2017-12-02T03:12:38.318Z,1.90
2017-12-02T03:15:04.457Z,1.90
2017-12-02T03:17:30.766Z,1.90
2017-12-02T03:19:56.929Z,1.90
2017-12-02T03:22:23.153Z,2.00
2017-12-02T03:24:49.276Z,2.00
2017-12-02T03:27:16.130Z,2.00
2017-12-02T03:29:42.240Z,2.00
2017-12-02T03:32:08.371Z,1.90
2017-12-02T03:34:34.751Z,2.00
2017-12-02T03:37:01.673Z,2.00
2017-12-02T03:39:27.811Z,2.00
2017-12-02T03:41:53.925Z,2.30
2017-12-02T03:44:20.083Z,2.20
2017-12-02T03:46:46.258Z,2.10
2017-12-02T03:49:13.123Z,1.90
2017-12-02T03:51:39.252Z,1.90
2017-12-02T03:54:06.136Z,1.90
2017-12-02T03:56:32.258Z,1.90
2017-12-02T03:58:59.484Z,1.90
2017-12-02T04:01:25.625Z,1.90
2017-12-02T04:03:51.768Z,1.80
2017-12-02T04:06:17.916Z,1.80
2017-12-02T04:08:44.469Z,2.00
2017-12-02T04:11:10.608Z,1.80
2017-12-02T04:13:36.760Z,1.80
2017-12-02T04:16:03.634Z,1.80
2017-12-02T04:18:29.761Z,1.80
2017-12-02T04:20:55.946Z,1.80
2017-12-02T04:23:22.074Z,1.80
2017-12-02T04:25:48.234Z,1.80
2017-12-02T04:28:14.392Z,1.70
2017-12-02T04:30:41.273Z,1.80
2017-12-02T04:33:08.169Z,1.70
2017-12-02T04:35:34.276Z,1.70
2017-12-02T04:38:01.129Z,1.70
2017-12-02T04:40:28.003Z,1.70
2017-12-02T04:42:54.116Z,1.60
2017-12-02T04:45:20.978Z,1.40
2017-12-02T04:47:47.108Z,1.40
2017-12-02T04:50:13.952Z,1.40
2017-12-02T04:52:40.120Z,1.40
2017-12-02T04:55:06.992Z,1.50
2017-12-02T04:57:33.196Z,1.50
2017-12-02T05:00:00.057Z,1.60
2017-12-02T05:02:26.898Z,1.60
2017-12-02T05:04:54.169Z,1.60
2017-12-02T05:07:21.008Z,1.80
2017-12-02T05:09:47.100Z,1.80
2017-12-02T05:12:13.224Z,1.80
2017-12-02T05:14:39.329Z,1.90
2017-12-02T05:17:05.655Z,1.90
2017-12-02T05:19:31.722Z,1.90
2017-12-02T05:21:58.570Z,1.80
2017-12-02T05:24:24.697Z,1.80
2017-12-02T05:26:50.828Z,1.80
2017-12-02T05:29:16.933Z,1.80
2017-12-02T05:31:43.080Z,1.70
2017-12-02T05:34:09.220Z,1.70
2017-12-02T05:36:35.328Z,1.60
2017-12-02T05:39:01.432Z,1.60
2017-12-02T05:41:27.585Z,1.60
2017-12-02T05:43:53.761Z,1.60
2017-12-02T05:46:19.874Z,1.50
2017-12-02T05:48:46.001Z,1.50
2017-12-02T05:51:12.880Z,1.50
2017-12-02T05:53:38.992Z,1.40
2017-12-02T05:56:05.851Z,1.50
2017-12-02T05:58:32.843Z,1.50
2017-12-02T06:01:00.024Z,1.60
2017-12-02T06:03:26.159Z,1.60
2017-12-02T06:05:52.284Z,1.60
2017-12-02T06:08:18.383Z,1.70
2017-12-02T06:10:45.300Z,1.70
2017-12-02T06:13:11.392Z,1.70
2017-12-02T06:15:37.530Z,1.70
2017-12-02T06:18:04.402Z,1.50
2017-12-02T06:20:30.519Z,1.50
2017-12-02T06:22:57.399Z,1.60
2017-12-02T06:25:23.673Z,1.40
2017-12-02T06:27:49.788Z,1.60
2017-12-02T06:30:15.900Z,1.60
2017-12-02T06:32:42.001Z,1.50
2017-12-02T06:35:08.138Z,1.40
2017-12-02T06:37:34.353Z,1.30
2017-12-02T06:40:00.455Z,1.30
2017-12-02T06:42:26.554Z,1.30
2017-12-02T06:44:53.471Z,1.60
2017-12-02T06:47:19.681Z,1.50
2017-12-02T06:49:45.809Z,1.80
2017-12-02T06:52:11.935Z,1.90
2017-12-02T06:54:38.096Z,2.00
2017-12-02T06:57:04.196Z,1.90
2017-12-02T06:59:30.348Z,1.80
2017-12-02T07:01:57.306Z,1.60
2017-12-02T07:04:24.524Z,1.60
2017-12-02T07:06:50.670Z,1.70
2017-12-02T07:09:16.799Z,1.70
2017-12-02T07:14:18.594Z,1.70
2017-12-02T07:16:44.735Z,1.70
2017-12-02T07:19:10.937Z,1.80
2017-12-02T07:21:37.443Z,1.70
2017-12-02T07:24:03.561Z,1.90
2017-12-02T07:26:29.740Z,1.50
2017-12-02T07:28:55.896Z,1.60
2017-12-02T07:31:23.231Z,1.70
2017-12-02T07:33:49.401Z,1.60
2017-12-02T07:36:15.553Z,1.80
2017-12-02T07:38:41.692Z,1.80
2017-12-02T07:41:07.913Z,1.70
2017-12-02T07:43:34.074Z,1.70
2017-12-02T07:46:00.262Z,1.80
2017-12-02T07:48:28.525Z,1.90
2017-12-02T07:50:54.661Z,1.90
2017-12-02T07:53:20.790Z,1.80
2017-12-02T07:55:46.965Z,2.10
2017-12-02T07:58:13.097Z,2.30
2017-12-02T08:00:40.049Z,2.20
2017-12-02T08:03:06.160Z,2.20
2017-12-02T08:05:32.268Z,2.00
2017-12-02T08:07:58.372Z,2.00
2017-12-02T08:10:25.317Z,2.00
2017-12-02T08:12:51.474Z,2.00
2017-12-02T08:15:17.576Z,2.10
2017-12-02T08:17:44.421Z,2.10
2017-12-02T08:20:10.539Z,2.10
2017-12-02T08:22:37.820Z,2.20
2017-12-02T08:25:05.442Z,2.10
2017-12-02T08:27:32.284Z,1.90
2017-12-02T08:29:58.448Z,1.90
2017-12-02T08:32:24.602Z,1.90
2017-12-02T08:34:50.777Z,1.90
2017-12-02T08:37:16.900Z,2.10
2017-12-02T08:39:43.032Z,2.00
2017-12-02T08:42:09.161Z,2.10
2017-12-02T08:44:35.257Z,2.00
2017-12-02T08:47:01.381Z,1.80
2017-12-02T08:49:28.542Z,1.80
2017-12-02T08:51:54.653Z,1.80
2017-12-02T08:54:20.780Z,1.80
2017-12-02T08:56:46.928Z,2.00
2017-12-02T08:59:13.053Z,1.80
2017-12-02T09:01:39.899Z,1.80
2017-12-02T09:04:06.041Z,1.80
2017-12-02T09:06:33.061Z,1.90
2017-12-02T09:08:59.222Z,1.90
2017-12-02T09:11:25.326Z,1.80
2017-12-02T09:13:51.430Z,1.70
2017-12-02T09:16:17.577Z,1.60
2017-12-02T09:18:43.678Z,1.50
2017-12-02T09:21:10.649Z,1.60
2017-12-02T09:23:37.547Z,1.80
2017-12-02T09:26:03.699Z,1.80
2017-12-02T09:28:29.823Z,1.90
2017-12-02T09:30:55.962Z,2.00
2017-12-02T09:33:22.092Z,2.10
2017-12-02T09:35:48.201Z,2.20
2017-12-02T09:38:14.317Z,2.20
2017-12-02T09:40:40.469Z,1.80
2017-12-02T09:43:07.313Z,2.20
2017-12-02T09:45:34.167Z,2.10
2017-12-02T09:48:01.025Z,2.20
2017-12-02T09:50:27.139Z,2.20
2017-12-02T09:52:53.351Z,2.30
2017-12-02T09:55:19.461Z,2.50
2017-12-02T09:57:46.355Z,2.20
2017-12-02T10:00:15.239Z,2.20
2017-12-02T10:02:41.425Z,2.40
2017-12-02T10:05:07.668Z,2.40
2017-12-02T10:07:34.015Z,2.30
2017-12-02T10:10:00.977Z,2.30
2017-12-02T10:12:27.852Z,2.20
2017-12-02T10:14:54.030Z,2.20
2017-12-02T10:17:20.974Z,2.10
2017-12-02T10:19:47.822Z,2.20
2017-12-02T10:22:14.028Z,2.10
2017-12-02T10:24:40.190Z,2.10
2017-12-02T10:27:06.320Z,2.20
2017-12-02T10:32:06.217Z,2.30
2017-12-02T10:37:18.897Z,2.20
2017-12-02T10:39:45.030Z,2.50
2017-12-02T10:42:11.290Z,2.40
2017-12-02T10:44:37.437Z,2.40
2017-12-02T10:47:03.788Z,2.70
2017-12-02T10:49:29.887Z,2.70
2017-12-02T10:52:00.410Z,2.50
2017-12-02T10:54:27.389Z,2.50
2017-12-02T10:56:53.520Z,2.50
2017-12-02T10:59:25.926Z,2.50
2017-12-02T11:01:52.794Z,2.60
2017-12-02T11:04:23.438Z,2.60
2017-12-02T11:06:56.389Z,2.70
2017-12-02T11:09:23.236Z,2.70
2017-12-02T11:11:49.430Z,2.30
2017-12-02T11:14:18.724Z,2.60
2017-12-02T11:16:44.975Z,2.40
2017-12-02T11:19:11.118Z,2.30
2017-12-02T11:21:37.249Z,2.20
2017-12-02T11:24:03.404Z,2.40
2017-12-02T11:26:29.523Z,2.60
2017-12-02T11:29:00.238Z,2.40
2017-12-02T11:31:42.190Z,2.50
2017-12-02T11:34:17.122Z,2.60
2017-12-02T11:36:43.539Z,2.60
2017-12-02T11:39:09.852Z,2.70
2017-12-02T11:41:36.246Z,2.40
2017-12-02T11:44:05.089Z,2.30
2017-12-02T11:46:31.402Z,2.40
2017-12-02T11:49:02.016Z,2.70
2017-12-02T11:51:29.092Z,2.70
2017-12-02T11:53:55.473Z,2.70
2017-12-02T11:56:21.815Z,2.80
2017-12-02T11:58:48.195Z,3.00
2017-12-02T12:01:16.183Z,2.80
2017-12-02T12:03:42.511Z,3.10
2017-12-02T12:06:09.589Z,2.80
2017-12-02T12:08:36.656Z,2.70
2017-12-02T12:11:03.136Z,2.70
2017-12-02T12:13:29.456Z,2.40
2017-12-02T12:15:55.781Z,2.70
2017-12-02T12:18:22.161Z,2.50
2017-12-02T12:20:48.450Z,2.70
2017-12-02T12:23:15.520Z,2.80
2017-12-02T12:25:42.577Z,3.00
2017-12-02T12:28:08.900Z,3.00
2017-12-02T12:30:35.992Z,2.60
2017-12-02T12:33:07.243Z,2.60
2017-12-02T12:35:34.512Z,2.40
2017-12-02T12:38:00.824Z,2.30
2017-12-02T12:40:27.108Z,2.60
2017-12-02T12:42:53.420Z,2.90
2017-12-02T12:45:19.953Z,3.00
2017-12-02T12:47:46.447Z,2.90
2017-12-02T12:50:12.768Z,3.00
2017-12-02T12:52:45.775Z,3.30
2017-12-02T12:55:12.081Z,3.10
2017-12-02T12:57:38.400Z,3.20
2017-12-02T13:00:04.943Z,3.20
2017-12-02T13:02:31.297Z,3.10
2017-12-02T13:04:57.584Z,3.20
2017-12-02T13:07:24.700Z,3.00
2017-12-02T13:09:51.036Z,3.00
2017-12-02T13:12:17.752Z,2.80
2017-12-02T13:14:44.884Z,2.80
2017-12-02T13:17:11.331Z,2.80
2017-12-02T13:19:37.641Z,3.00
2017-12-02T13:22:03.982Z,3.00
2017-12-02T13:24:30.322Z,3.20
2017-12-02T13:26:56.647Z,3.20
2017-12-02T13:29:22.975Z,3.10
2017-12-02T13:31:50.080Z,3.00
2017-12-02T13:34:16.462Z,3.00
2017-12-02T13:36:43.557Z,3.00
2017-12-02T13:39:09.902Z,3.00
2017-12-02T13:41:36.218Z,2.90
2017-12-02T13:44:03.263Z,3.00
2017-12-02T13:46:30.290Z,2.90
2017-12-02T13:48:56.628Z,2.90
2017-12-02T13:51:23.088Z,3.10
2017-12-02T13:53:49.446Z,3.10
2017-12-02T13:56:15.791Z,2.80
2017-12-02T13:58:42.121Z,2.80
2017-12-02T14:01:09.222Z,2.60
2017-12-02T14:03:36.910Z,2.50
2017-12-02T14:06:03.217Z,2.80
2017-12-02T14:08:30.299Z,2.60
2017-12-02T14:10:56.631Z,2.60
2017-12-02T14:13:23.267Z,2.70
2017-12-02T14:15:50.307Z,2.80
2017-12-02T14:18:16.722Z,2.80
2017-12-02T14:20:43.077Z,2.60
2017-12-02T14:23:10.168Z,2.50
2017-12-02T14:25:37.227Z,2.40
2017-12-02T14:28:04.334Z,2.70
2017-12-02T14:30:30.716Z,2.70
2017-12-02T14:32:57.024Z,2.80
2017-12-02T14:35:23.360Z,2.70
2017-12-02T14:37:49.850Z,2.80
2017-12-02T14:40:16.426Z,2.80
2017-12-02T14:42:42.772Z,2.60
2017-12-02T14:45:09.818Z,2.50
2017-12-02T14:47:36.861Z,2.60
2017-12-02T14:50:03.193Z,2.60
2017-12-02T14:52:29.486Z,2.40
2017-12-02T14:54:55.865Z,2.30
2017-12-02T14:57:22.163Z,2.30
2017-12-02T14:59:48.542Z,2.70
2017-12-02T15:02:14.865Z,2.80
2017-12-02T15:04:41.195Z,2.80
2017-12-02T15:07:07.525Z,2.80
2017-12-02T15:09:33.972Z,2.80
2017-12-02T15:12:01.086Z,2.60
2017-12-02T15:14:27.497Z,2.70
2017-12-02T15:16:53.876Z,2.70
2017-12-02T15:19:20.229Z,2.60
2017-12-02T15:21:46.674Z,2.30
2017-12-02T15:24:13.109Z,2.40
2017-12-02T15:26:39.435Z,2.40
2017-12-02T15:29:05.763Z,2.60
2017-12-02T15:31:32.110Z,2.60
2017-12-02T15:33:58.534Z,2.60
2017-12-02T15:36:25.053Z,2.90
2017-12-02T15:38:52.139Z,2.50
2017-12-02T15:41:19.231Z,2.60
2017-12-02T15:43:45.618Z,2.60
2017-12-02T15:46:12.787Z,2.60
2017-12-02T15:48:39.196Z,2.60
2017-12-02T15:51:05.615Z,2.80
2017-12-02T15:53:31.969Z,2.70
2017-12-02T15:55:58.356Z,2.20
2017-12-02T15:58:25.481Z,2.50
2017-12-02T16:00:51.845Z,2.50
2017-12-02T16:03:22.631Z,2.50
2017-12-02T16:05:48.946Z,2.50
2017-12-02T16:08:15.996Z,2.70
2017-12-02T16:10:42.330Z,2.70
2017-12-02T16:13:08.781Z,2.60
2017-12-02T16:15:35.297Z,2.60
2017-12-02T16:20:34.630Z,2.60
2017-12-02T16:23:00.994Z,2.80
2017-12-02T16:25:27.327Z,2.60
2017-12-02T16:27:53.703Z,2.50
2017-12-02T16:30:20.117Z,2.20
2017-12-02T16:32:52.564Z,2.10
2017-12-02T16:35:19.614Z,2.20
2017-12-02T16:37:46.008Z,2.20
2017-12-02T16:40:12.319Z,1.80
2017-12-02T16:42:38.674Z,2.40
2017-12-02T16:45:04.983Z,2.40
2017-12-02T16:47:31.217Z,2.30
2017-12-02T16:49:58.275Z,2.30
2017-12-02T16:52:27.752Z,2.30
2017-12-02T16:54:54.115Z,2.30
2017-12-02T16:57:20.413Z,2.40
2017-12-02T16:59:46.788Z,2.70
2017-12-02T17:02:13.110Z,2.60
2017-12-02T17:04:40.236Z,2.60
2017-12-02T17:07:06.600Z,2.60
2017-12-02T17:09:34.673Z,2.60
2017-12-02T17:12:01.345Z,2.50
2017-12-02T17:14:28.237Z,2.50
2017-12-02T17:16:54.585Z,2.50
2017-12-02T17:19:21.630Z,2.60
2017-12-02T17:21:47.965Z,2.50
2017-12-02T17:24:20.453Z,2.60
2017-12-02T17:26:46.807Z,2.50
2017-12-02T17:29:13.191Z,2.30
2017-12-02T17:31:39.500Z,2.40
2017-12-02T17:34:05.868Z,2.10
2017-12-02T17:36:33.030Z,2.70
2017-12-02T17:39:05.111Z,2.50
2017-12-02T17:41:31.480Z,2.50
2017-12-02T17:43:58.564Z,2.40
2017-12-02T17:46:24.955Z,2.30
2017-12-02T17:48:51.273Z,2.50
2017-12-02T17:51:17.614Z,2.30
2017-12-02T17:53:43.962Z,2.10
2017-12-02T17:56:10.287Z,2.40
2017-12-02T17:58:36.705Z,2.30
2017-12-02T18:01:03.123Z,2.30
2017-12-02T18:03:29.548Z,2.20
2017-12-02T18:05:55.849Z,2.30
2017-12-02T18:08:22.238Z,2.40
2017-12-02T18:10:49.018Z,2.50
2017-12-02T18:13:20.752Z,2.40
2017-12-02T18:15:47.083Z,2.40
2017-12-02T18:18:13.462Z,2.20
2017-12-02T18:20:39.760Z,2.20
2017-12-02T18:23:06.148Z,2.00
2017-12-02T18:25:32.466Z,2.10
2017-12-02T18:27:59.482Z,2.00
2017-12-02T18:30:26.837Z,2.00
2017-12-02T18:32:53.164Z,2.00
2017-12-02T18:35:19.600Z,1.90
2017-12-02T18:37:45.928Z,1.90
2017-12-02T18:40:12.277Z,1.80
2017-12-02T18:42:38.619Z,2.00
2017-12-02T18:45:05.728Z,1.90
2017-12-02T18:47:32.059Z,1.90
2017-12-02T18:49:58.361Z,2.10
2017-12-02T18:52:24.802Z,2.10
2017-12-02T18:54:51.130Z,2.00
2017-12-02T18:57:17.494Z,2.00
2017-12-02T18:59:44.532Z,1.90
2017-12-02T19:02:10.849Z,1.80
2017-12-02T19:04:38.044Z,1.90
2017-12-02T19:07:04.383Z,1.90
2017-12-02T19:09:30.738Z,1.90
2017-12-02T19:11:57.196Z,2.00
2017-12-02T19:14:23.662Z,2.50
2017-12-02T19:16:49.976Z,2.00
2017-12-02T19:19:16.331Z,2.10
2017-12-02T19:21:42.687Z,2.40
2017-12-02T19:24:09.172Z,2.00
2017-12-02T19:26:35.589Z,2.10
2017-12-02T19:29:01.929Z,2.10
2017-12-02T19:31:28.378Z,2.10
2017-12-02T19:33:54.935Z,2.10
2017-12-02T19:36:22.012Z,2.30
2017-12-02T19:38:48.537Z,2.30
2017-12-02T19:41:14.990Z,2.20
2017-12-02T19:43:42.088Z,2.10
2017-12-02T19:46:09.086Z,2.00
2017-12-02T19:48:35.518Z,2.20
2017-12-02T19:51:01.857Z,2.10
2017-12-02T19:53:28.280Z,2.00
2017-12-02T19:55:54.791Z,2.10
2017-12-02T19:58:21.216Z,2.00
2017-12-02T20:00:47.612Z,1.90
2017-12-02T20:03:13.978Z,2.20
2017-12-02T20:05:40.416Z,2.10
2017-12-02T20:08:06.748Z,2.20
2017-12-02T20:10:33.127Z,2.20
2017-12-02T20:12:59.515Z,2.10
2017-12-02T20:15:25.869Z,2.10
2017-12-02T20:17:53.133Z,2.10
2017-12-02T20:20:20.224Z,2.10
2017-12-02T20:22:46.569Z,2.00
2017-12-02T20:25:12.896Z,2.10
2017-12-02T20:27:39.245Z,2.00
2017-12-02T20:30:05.605Z,2.00
2017-12-02T20:32:32.029Z,2.00
2017-12-02T20:34:58.426Z,2.00
2017-12-02T20:37:24.834Z,2.00
2017-12-02T20:39:51.913Z,1.90
2017-12-02T20:42:18.341Z,1.70
2017-12-02T20:44:44.663Z,2.00
2017-12-02T20:47:11.028Z,2.10
2017-12-02T20:49:37.442Z,1.90
2017-12-02T20:52:04.460Z,2.10
2017-12-02T20:54:30.784Z,2.00
2017-12-02T20:56:57.129Z,2.10
2017-12-02T20:59:23.479Z,2.20
2017-12-02T21:01:49.800Z,1.80
2017-12-02T21:04:16.130Z,1.80
2017-12-02T21:06:42.444Z,1.90
2017-12-02T21:09:08.777Z,1.90
2017-12-02T21:11:35.104Z,1.90
2017-12-02T21:14:01.432Z,1.70
2017-12-02T21:16:27.736Z,1.90
2017-12-02T21:18:54.804Z,1.90
2017-12-02T21:21:21.212Z,1.80
2017-12-02T21:23:48.281Z,1.90
2017-12-02T21:29:13.569Z,2.00
2017-12-02T21:31:39.957Z,2.20
2017-12-02T21:34:06.353Z,2.10
2017-12-02T21:36:32.669Z,2.00
2017-12-02T21:38:59.828Z,1.80
2017-12-02T21:41:26.177Z,1.80
2017-12-02T21:43:53.425Z,1.70
2017-12-02T21:46:19.712Z,1.70
2017-12-02T21:48:46.779Z,1.70
2017-12-02T21:51:13.092Z,1.70
2017-12-02T21:53:39.543Z,1.70
2017-12-02T21:56:06.639Z,2.00
2017-12-02T21:58:33.084Z,1.90
2017-12-02T22:00:59.791Z,2.10
2017-12-02T22:03:26.123Z,2.10
2017-12-02T22:05:52.453Z,2.10
2017-12-02T22:08:18.806Z,2.00
2017-12-02T22:10:45.103Z,2.00
2017-12-02T22:13:11.679Z,2.20
2017-12-02T22:15:38.086Z,2.20
2017-12-02T22:18:04.395Z,2.20
2017-12-02T22:20:30.746Z,2.30
2017-12-02T22:22:57.016Z,2.40
2017-12-02T22:25:24.077Z,2.10
2017-12-02T22:27:50.585Z,2.10
2017-12-02T22:30:17.647Z,2.10
2017-12-02T22:32:44.040Z,2.10
2017-12-02T22:35:10.444Z,2.10
2017-12-02T22:37:36.889Z,2.30
2017-12-02T22:40:03.265Z,2.10
2017-12-02T22:42:30.393Z,2.30
2017-12-02T22:44:56.740Z,2.30
2017-12-02T22:47:23.124Z,2.30
2017-12-02T22:49:49.498Z,2.20
2017-12-02T22:52:15.845Z,2.20
2017-12-02T22:54:42.299Z,2.30
2017-12-02T22:57:08.761Z,2.30
2017-12-02T22:59:35.852Z,2.40
2017-12-02T23:02:02.316Z,2.40
2017-12-02T23:04:28.692Z,2.40
2017-12-02T23:06:55.144Z,2.80
2017-12-02T23:09:21.484Z,2.30
2017-12-02T23:11:47.813Z,2.30
2017-12-02T23:14:14.373Z,2.20
2017-12-02T23:16:40.711Z,2.10
2017-12-02T23:19:07.040Z,2.10
2017-12-02T23:21:33.394Z,2.10
2017-12-02T23:23:59.752Z,2.10
2017-12-02T23:26:26.106Z,2.20
2017-12-02T23:28:52.471Z,2.20
2017-12-02T23:31:18.999Z,2.20
2017-12-02T23:33:46.076Z,2.60
2017-12-02T23:36:13.136Z,2.40
2017-12-02T23:38:40.014Z,2.30
2017-12-02T23:41:06.912Z,2.10
2017-12-02T23:43:33.016Z,2.10
2017-12-02T23:45:59.183Z,2.10
2017-12-02T23:48:25.326Z,2.00
2017-12-02T23:50:51.458Z,2.20
2017-12-02T23:53:17.584Z,2.20
2017-12-02T23:55:43.917Z,2.20
2017-12-02T23:58:18.949Z,2.20
